Time;durP1;ratioP1;P1;durP2;ratioP2;P2;SDS_P1;SDS_P2;PMS_P1;PMS_P2;Temp;Humidity;BMP_temperature;BMP_pressure;BME280_temperature;BME280_humidity;BME280_pressure;Samples;Min_cycle;Max_cycle;Signal;HPM_P1;HPM_P2
2022/02/18 00:00:48;;;;;;;;;;;5.70;99.90;;;;;;4971855;28;19910;-74
2022/02/18 00:03:14;;;;;;;;;;;5.70;99.90;;;;;;4971115;28;20260;-74
2022/02/18 00:05:41;;;;;;;;;;;5.70;99.90;;;;;;4972352;28;19917;-73
2022/02/18 00:08:06;;;;;;;;;;;5.70;99.90;;;;;;4975539;28;19937;-74
2022/02/18 00:10:32;;;;;;;;;;;5.70;99.90;;;;;;4976453;28;20008;-74
2022/02/18 00:12:58;;;;;;;;;;;5.70;99.90;;;;;;4966760;28;19918;-74
2022/02/18 00:15:24;;;;;;;;;;;5.70;99.90;;;;;;4971156;28;19907;-74
2022/02/18 00:17:50;;;;;;;;;;;5.60;99.90;;;;;;4976686;28;20435;-75
2022/02/18 00:20:16;;;;;;;;;;;5.60;99.90;;;;;;4975612;28;20356;-76
2022/02/18 00:22:42;;;;;;;;;;;5.60;99.90;;;;;;4968782;28;19914;-75
2022/02/18 00:25:10;;;;;;;;;;;5.60;99.90;;;;;;4969773;28;19995;-75
2022/02/18 00:27:37;;;;;;;;;;;5.60;99.90;;;;;;4972323;28;19917;-74
2022/02/18 00:30:03;;;;;;;;;;;5.60;99.90;;;;;;4972351;28;19931;-74
2022/02/18 00:32:29;;;;;;;;;;;5.60;99.90;;;;;;4968665;28;19914;-75
2022/02/18 00:34:54;;;;;;;;;;;5.60;99.90;;;;;;4967039;28;20063;-75
2022/02/18 00:37:20;;;;;;;;;;;5.60;99.90;;;;;;4979940;28;19910;-75
2022/02/18 00:39:46;;;;;;;;;;;5.60;99.90;;;;;;4971482;28;19914;-76
2022/02/18 00:42:11;;;;;;;;;;;5.60;99.90;;;;;;4970861;28;19957;-74
2022/02/18 00:44:37;;;;;;;;;;;5.60;99.90;;;;;;4968197;28;19910;-74
2022/02/18 00:47:02;;;;;;;;;;;5.60;99.90;;;;;;4972575;28;19909;-75
2022/02/18 00:49:28;;;;;;;;;;;5.60;99.90;;;;;;4973128;28;20346;-74
2022/02/18 00:51:54;;;;;;;;;;;5.60;99.90;;;;;;4974348;28;19917;-74
2022/02/18 00:54:19;;;;;;;;;;;5.60;99.90;;;;;;4970162;28;20041;-74
2022/02/18 00:56:46;;;;;;;;;;;5.60;99.90;;;;;;4970728;28;19918;-74
2022/02/18 00:59:11;;;;;;;;;;;5.60;99.90;;;;;;4972036;28;20300;-74
2022/02/18 01:01:37;;;;;;;;;;;5.60;99.90;;;;;;4970228;28;19906;-74
2022/02/18 01:04:03;;;;;;;;;;;5.60;99.90;;;;;;4972764;28;20447;-74
2022/02/18 01:06:29;;;;;;;;;;;5.60;99.90;;;;;;4973394;28;19913;-74
2022/02/18 01:08:54;;;;;;;;;;;5.60;99.90;;;;;;4971540;28;20335;-74
2022/02/18 01:11:20;;;;;;;;;;;5.60;99.90;;;;;;4970644;28;20017;-74
2022/02/18 01:13:46;;;;;;;;;;;5.50;99.90;;;;;;4966902;28;19964;-76
2022/02/18 01:16:13;;;;;;;;;;;5.50;99.90;;;;;;4966634;28;20354;-74
2022/02/18 01:18:38;;;;;;;;;;;5.40;99.90;;;;;;4972544;28;20004;-75
2022/02/18 01:21:04;;;;;;;;;;;5.40;99.90;;;;;;4967806;28;20006;-74
2022/02/18 01:23:30;;;;;;;;;;;5.40;99.90;;;;;;4972328;28;19961;-75
2022/02/18 01:25:55;;;;;;;;;;;5.30;99.90;;;;;;4967795;28;20396;-73
2022/02/18 01:28:21;;;;;;;;;;;5.30;99.90;;;;;;4984314;28;20850;-74
2022/02/18 01:30:47;;;;;;;;;;;5.30;99.90;;;;;;4973685;28;20292;-74
2022/02/18 01:33:13;;;;;;;;;;;5.20;99.90;;;;;;4961664;28;19910;-74
2022/02/18 01:35:38;;;;;;;;;;;5.20;99.90;;;;;;4970794;28;20145;-74
2022/02/18 01:38:05;;;;;;;;;;;5.20;99.90;;;;;;4990520;28;20271;-74
2022/02/18 01:40:31;;;;;;;;;;;5.10;99.90;;;;;;4971006;28;19960;-74
2022/02/18 01:42:57;;;;;;;;;;;5.10;99.90;;;;;;4970826;28;19914;-74
2022/02/18 01:45:23;;;;;;;;;;;5.10;99.90;;;;;;4971732;28;19914;-74
2022/02/18 01:47:48;;;;;;;;;;;5.10;99.90;;;;;;4974627;28;19925;-74
2022/02/18 01:50:14;;;;;;;;;;;5.10;99.90;;;;;;4966888;28;19914;-74
2022/02/18 01:52:42;;;;;;;;;;;5.00;99.90;;;;;;4965605;28;19949;-74
2022/02/18 01:55:12;;;;;;;;;;;5.00;99.90;;;;;;4968825;28;19909;-74
2022/02/18 01:57:39;;;;;;;;;;;5.00;99.90;;;;;;4966026;28;19936;-74
2022/02/18 02:00:05;;;;;;;;;;;4.90;99.90;;;;;;4970482;28;19914;-74
2022/02/18 02:02:31;;;;;;;;;;;4.90;99.90;;;;;;4980954;28;19914;-74
2022/02/18 02:04:57;;;;;;;;;;;4.90;99.90;;;;;;4963553;28;19943;-73
2022/02/18 02:07:22;;;;;;;;;;;4.90;99.90;;;;;;4962802;28;19934;-74
2022/02/18 02:09:48;;;;;;;;;;;4.80;99.90;;;;;;4964613;28;20385;-74
2022/02/18 02:12:13;;;;;;;;;;;4.80;99.90;;;;;;4961862;28;19961;-74
2022/02/18 02:14:39;;;;;;;;;;;4.80;99.90;;;;;;4964412;28;19914;-74
2022/02/18 02:17:05;;;;;;;;;;;4.80;99.90;;;;;;4964315;28;20368;-74
2022/02/18 02:19:30;;;;;;;;;;;4.70;99.90;;;;;;4966328;28;20400;-74
2022/02/18 02:21:56;;;;;;;;;;;4.70;99.90;;;;;;4962926;28;20419;-74
2022/02/18 02:24:22;;;;;;;;;;;4.70;99.90;;;;;;4946964;28;19993;-74
2022/02/18 02:26:47;;;;;;;;;;;4.70;99.90;;;;;;4970094;28;19941;-74
2022/02/18 02:29:14;;;;;;;;;;;4.70;99.90;;;;;;4966601;28;19917;-74
2022/02/18 02:31:41;;;;;;;;;;;4.60;99.90;;;;;;4966783;28;19910;-73
2022/02/18 02:34:07;;;;;;;;;;;4.60;99.90;;;;;;4968196;28;19986;-74
2022/02/18 02:36:32;;;;;;;;;;;4.60;99.90;;;;;;4974895;28;19917;-73
2022/02/18 02:38:58;;;;;;;;;;;4.50;99.90;;;;;;4974329;28;19914;-73
2022/02/18 02:41:25;;;;;;;;;;;4.50;99.90;;;;;;4963003;28;20407;-74
2022/02/18 02:43:50;;;;;;;;;;;4.40;99.90;;;;;;4970841;28;19916;-73
2022/02/18 02:46:16;;;;;;;;;;;4.50;99.90;;;;;;4967805;28;19996;-74
2022/02/18 02:48:42;;;;;;;;;;;4.50;99.90;;;;;;4969566;28;19952;-73
2022/02/18 02:51:08;;;;;;;;;;;4.40;99.90;;;;;;4972651;28;20403;-75
2022/02/18 02:53:34;;;;;;;;;;;4.40;99.90;;;;;;4964792;28;19917;-74
2022/02/18 02:55:59;;;;;;;;;;;4.40;99.90;;;;;;4962179;28;20018;-75
2022/02/18 02:58:25;;;;;;;;;;;4.40;99.90;;;;;;4967928;28;20315;-74
2022/02/18 03:00:51;;;;;;;;;;;4.40;99.90;;;;;;4965253;28;19917;-74
2022/02/18 03:03:17;;;;;;;;;;;4.40;99.90;;;;;;4966689;28;19910;-75
2022/02/18 03:05:43;;;;;;;;;;;4.40;99.90;;;;;;4951248;28;19932;-74
2022/02/18 03:08:09;;;;;;;;;;;4.40;99.90;;;;;;4971574;28;20384;-74
2022/02/18 03:10:34;;;;;;;;;;;4.30;99.90;;;;;;4972403;28;20068;-74
2022/02/18 03:13:01;;;;;;;;;;;4.30;99.90;;;;;;4967316;28;19909;-74
2022/02/18 03:15:27;;;;;;;;;;;4.20;99.90;;;;;;4965033;28;19926;-73
2022/02/18 03:17:52;;;;;;;;;;;4.20;99.90;;;;;;4968238;28;19917;-75
2022/02/18 03:20:18;;;;;;;;;;;4.20;99.90;;;;;;4969106;28;19992;-74
2022/02/18 03:22:44;;;;;;;;;;;4.30;99.90;;;;;;4965882;28;19996;-74
2022/02/18 03:25:09;;;;;;;;;;;4.30;99.90;;;;;;4964871;28;20432;-74
2022/02/18 03:27:37;;;;;;;;;;;4.30;99.90;;;;;;4947729;28;19957;-73
2022/02/18 03:30:03;;;;;;;;;;;4.30;99.90;;;;;;4968298;28;20365;-73
2022/02/18 03:32:29;;;;;;;;;;;4.30;99.90;;;;;;4971108;28;19920;-73
2022/02/18 03:34:56;;;;;;;;;;;4.30;99.90;;;;;;4974615;28;19913;-73
2022/02/18 03:37:22;;;;;;;;;;;4.30;99.90;;;;;;4973552;28;19920;-73
2022/02/18 03:39:48;;;;;;;;;;;4.40;99.90;;;;;;4967458;28;19916;-72
2022/02/18 03:42:14;;;;;;;;;;;4.30;99.90;;;;;;4969378;28;20005;-72
2022/02/18 03:44:39;;;;;;;;;;;4.30;99.90;;;;;;4968488;28;19910;-73
2022/02/18 03:47:05;;;;;;;;;;;4.30;99.90;;;;;;4956172;28;19936;-73
2022/02/18 03:49:31;;;;;;;;;;;4.30;99.90;;;;;;4973483;28;19917;-73
2022/02/18 03:51:56;;;;;;;;;;;4.30;99.90;;;;;;4971981;28;20312;-75
2022/02/18 03:54:24;;;;;;;;;;;4.30;99.90;;;;;;4950457;28;20368;-73
2022/02/18 03:56:50;;;;;;;;;;;4.30;99.90;;;;;;4972225;28;19914;-75
2022/02/18 03:59:15;;;;;;;;;;;4.30;99.90;;;;;;4968556;28;20544;-75
2022/02/18 04:01:41;;;;;;;;;;;4.30;99.90;;;;;;4951425;28;19957;-75
2022/02/18 04:04:06;;;;;;;;;;;4.30;99.90;;;;;;4971209;28;19965;-75
2022/02/18 04:06:32;;;;;;;;;;;4.30;99.90;;;;;;4972646;28;20376;-74
2022/02/18 04:08:58;;;;;;;;;;;4.30;99.90;;;;;;4965468;28;19913;-75
2022/02/18 04:11:24;;;;;;;;;;;4.30;99.90;;;;;;4968179;28;19914;-75
2022/02/18 04:13:49;;;;;;;;;;;4.30;99.90;;;;;;4966680;28;20288;-75
2022/02/18 04:16:15;;;;;;;;;;;4.30;99.90;;;;;;4973298;28;19965;-75
2022/02/18 04:18:41;;;;;;;;;;;4.30;99.90;;;;;;4975552;28;19914;-74
2022/02/18 04:21:07;;;;;;;;;;;4.30;99.90;;;;;;4971464;28;19914;-74
2022/02/18 04:23:32;;;;;;;;;;;4.30;99.90;;;;;;4980134;28;19917;-75
2022/02/18 04:25:58;;;;;;;;;;;4.30;99.90;;;;;;4972939;28;19985;-75
2022/02/18 04:28:23;;;;;;;;;;;4.30;99.90;;;;;;4970405;28;19954;-75
2022/02/18 04:30:49;;;;;;;;;;;4.30;99.90;;;;;;4971780;28;20380;-74
2022/02/18 04:33:15;;;;;;;;;;;4.30;99.90;;;;;;4976810;28;19917;-75
2022/02/18 04:35:42;;;;;;;;;;;4.40;99.90;;;;;;4967957;28;19961;-75
2022/02/18 04:38:07;;;;;;;;;;;4.40;99.90;;;;;;4968683;28;19911;-74
2022/02/18 04:40:33;;;;;;;;;;;4.40;99.90;;;;;;4976472;28;19913;-75
2022/02/18 04:42:58;;;;;;;;;;;4.40;99.90;;;;;;4964968;28;19996;-75
2022/02/18 04:45:24;;;;;;;;;;;4.30;99.90;;;;;;4972839;28;19918;-75
2022/02/18 04:47:49;;;;;;;;;;;4.30;99.90;;;;;;4967629;28;19918;-74
2022/02/18 04:50:15;;;;;;;;;;;4.30;99.90;;;;;;4970151;28;20410;-75
2022/02/18 04:52:40;;;;;;;;;;;4.40;99.90;;;;;;4971694;28;19910;-75
2022/02/18 04:55:06;;;;;;;;;;;4.30;99.90;;;;;;4956949;28;19969;-74
2022/02/18 04:57:32;;;;;;;;;;;4.40;99.90;;;;;;4968509;28;20499;-74
2022/02/18 04:59:58;;;;;;;;;;;4.40;99.90;;;;;;4971363;28;19921;-74
2022/02/18 05:02:23;;;;;;;;;;;4.40;99.90;;;;;;4967643;28;19910;-75
2022/02/18 05:04:49;;;;;;;;;;;4.40;99.90;;;;;;4969624;28;20292;-74
2022/02/18 05:07:15;;;;;;;;;;;4.40;99.90;;;;;;4968299;28;19925;-74
2022/02/18 05:09:40;;;;;;;;;;;4.40;99.90;;;;;;4971783;28;19914;-74
2022/02/18 05:12:06;;;;;;;;;;;4.40;99.90;;;;;;4968108;28;19910;-73
2022/02/18 05:14:32;;;;;;;;;;;4.40;99.90;;;;;;4971000;28;20020;-72
2022/02/18 05:16:59;;;;;;;;;;;4.40;99.90;;;;;;4968579;28;20280;-75
2022/02/18 05:19:25;;;;;;;;;;;4.40;99.90;;;;;;4968727;28;20372;-74
2022/02/18 05:21:51;;;;;;;;;;;4.40;99.90;;;;;;4968871;28;19995;-75
2022/02/18 05:24:16;;;;;;;;;;;4.40;99.90;;;;;;4968317;28;19910;-75
2022/02/18 05:26:42;;;;;;;;;;;4.40;99.90;;;;;;4969754;28;19914;-75
2022/02/18 05:29:07;;;;;;;;;;;4.40;99.90;;;;;;4976094;28;20293;-75
2022/02/18 05:31:33;;;;;;;;;;;4.40;99.90;;;;;;4970605;28;20160;-74
2022/02/18 05:33:59;;;;;;;;;;;4.40;99.90;;;;;;4972420;28;19961;-75
2022/02/18 05:36:24;;;;;;;;;;;4.40;99.90;;;;;;4952131;28;19916;-75
2022/02/18 05:38:50;;;;;;;;;;;4.40;99.90;;;;;;4973662;28;20350;-74
2022/02/18 05:41:19;;;;;;;;;;;4.40;99.90;;;;;;4970401;28;19921;-74
2022/02/18 05:43:44;;;;;;;;;;;4.40;99.90;;;;;;4967532;28;20403;-74
2022/02/18 05:46:10;;;;;;;;;;;4.40;99.90;;;;;;4967499;28;19910;-74
2022/02/18 05:48:36;;;;;;;;;;;4.40;99.90;;;;;;4971598;28;20383;-75
2022/02/18 05:51:03;;;;;;;;;;;4.40;99.90;;;;;;4968899;28;19961;-74
2022/02/18 05:53:29;;;;;;;;;;;4.50;99.90;;;;;;4971763;28;19910;-73
2022/02/18 05:55:55;;;;;;;;;;;4.50;99.90;;;;;;4971459;28;19914;-75
2022/02/18 05:58:20;;;;;;;;;;;4.50;99.90;;;;;;4969702;28;19910;-75
2022/02/18 06:00:47;;;;;;;;;;;4.50;99.90;;;;;;4969789;28;19918;-75
2022/02/18 06:03:12;;;;;;;;;;;4.50;99.90;;;;;;4970320;28;19946;-75
2022/02/18 06:05:38;;;;;;;;;;;4.50;99.90;;;;;;4973958;28;20014;-75
2022/02/18 06:08:04;;;;;;;;;;;4.50;99.90;;;;;;4962566;28;19914;-74
2022/02/18 06:10:29;;;;;;;;;;;4.50;99.90;;;;;;4974801;28;19921;-74
2022/02/18 06:12:55;;;;;;;;;;;4.50;99.90;;;;;;4966310;28;19956;-74
2022/02/18 06:15:21;;;;;;;;;;;4.50;99.90;;;;;;4969375;28;19921;-73
2022/02/18 06:17:46;;;;;;;;;;;4.50;99.90;;;;;;4973835;28;20630;-74
2022/02/18 06:20:12;;;;;;;;;;;4.50;99.90;;;;;;4966928;28;19918;-73
2022/02/18 06:22:37;;;;;;;;;;;4.50;99.90;;;;;;4966521;28;20272;-74
2022/02/18 06:25:07;;;;;;;;;;;4.50;99.90;;;;;;4979651;28;19920;-75
2022/02/18 06:27:33;;;;;;;;;;;4.60;99.90;;;;;;4966399;28;19921;-74
2022/02/18 06:29:58;;;;;;;;;;;4.60;99.90;;;;;;4966263;28;20392;-75
2022/02/18 06:32:24;;;;;;;;;;;4.60;99.90;;;;;;4966648;28;19917;-75
2022/02/18 06:34:50;;;;;;;;;;;4.60;99.90;;;;;;4970015;28;20400;-76
2022/02/18 06:37:16;;;;;;;;;;;4.60;99.90;;;;;;4968502;28;19941;-75
2022/02/18 06:39:41;;;;;;;;;;;4.60;99.90;;;;;;4969378;28;20487;-76
2022/02/18 06:42:07;;;;;;;;;;;4.60;99.90;;;;;;4967736;28;19918;-77
2022/02/18 06:44:32;;;;;;;;;;;4.60;99.90;;;;;;4952115;28;19918;-77
2022/02/18 06:46:58;;;;;;;;;;;4.60;99.90;;;;;;4967659;28;19918;-76
2022/02/18 06:49:24;;;;;;;;;;;4.60;99.90;;;;;;4967594;28;19906;-76
2022/02/18 06:51:55;;;;;;;;;;;4.60;99.90;;;;;;4960839;28;20365;-76
2022/02/18 06:54:27;;;;;;;;;;;4.70;99.90;;;;;;4945935;28;19945;-76
2022/02/18 06:56:54;;;;;;;;;;;4.70;99.90;;;;;;4962392;28;19911;-76
2022/02/18 06:59:19;;;;;;;;;;;4.70;99.90;;;;;;4961890;28;20229;-76
2022/02/18 07:01:53;;;;;;;;;;;4.70;99.90;;;;;;4958563;28;19921;-76
2022/02/18 07:04:19;;;;;;;;;;;4.70;99.90;;;;;;4962082;28;20352;-76
2022/02/18 07:06:44;;;;;;;;;;;4.70;99.90;;;;;;4945340;28;20000;-75
2022/02/18 07:09:13;;;;;;;;;;;4.70;99.90;;;;;;4960421;28;20004;-75
2022/02/18 07:11:38;;;;;;;;;;;4.80;99.90;;;;;;4959852;28;19914;-76
2022/02/18 07:14:06;;;;;;;;;;;4.80;99.90;;;;;;4962952;28;19918;-75
2022/02/18 07:16:32;;;;;;;;;;;4.80;99.90;;;;;;4962792;28;19969;-76
2022/02/18 07:18:59;;;;;;;;;;;4.90;99.90;;;;;;4963929;28;19925;-75
2022/02/18 07:21:24;;;;;;;;;;;4.90;99.90;;;;;;4965253;28;19918;-74
2022/02/18 07:23:50;;;;;;;;;;;5.00;99.90;;;;;;4967653;28;19914;-75
2022/02/18 07:26:15;;;;;;;;;;;4.90;99.90;;;;;;4959294;28;19953;-76
2022/02/18 07:28:41;;;;;;;;;;;5.00;99.90;;;;;;4960579;28;19910;-76
2022/02/18 07:31:07;;;;;;;;;;;5.00;99.90;;;;;;4955115;28;19918;-74
2022/02/18 07:33:32;;;;;;;;;;;5.00;99.90;;;;;;4944802;28;19914;-76
2022/02/18 07:35:58;;;;;;;;;;;5.00;99.90;;;;;;4963454;28;20288;-77
2022/02/18 07:38:23;;;;;;;;;;;5.10;99.90;;;;;;4972599;28;19914;-76
2022/02/18 07:40:49;;;;;;;;;;;5.10;99.90;;;;;;4962423;28;20382;-75
2022/02/18 07:43:14;;;;;;;;;;;5.20;99.90;;;;;;4960472;28;19946;-76
2022/02/18 07:45:40;;;;;;;;;;;5.20;99.90;;;;;;4959886;28;19914;-75
2022/02/18 07:48:06;;;;;;;;;;;5.20;99.90;;;;;;4960451;28;19914;-76
2022/02/18 07:50:31;;;;;;;;;;;5.20;99.90;;;;;;4967495;28;19910;-76
2022/02/18 07:52:57;;;;;;;;;;;5.30;99.90;;;;;;4985270;28;19993;-76
2022/02/18 07:55:23;;;;;;;;;;;5.30;99.90;;;;;;4971086;28;19910;-75
2022/02/18 07:57:48;;;;;;;;;;;5.30;99.90;;;;;;4970626;28;19917;-74
2022/02/18 08:00:14;;;;;;;;;;;5.30;99.90;;;;;;4950884;28;19965;-75
2022/02/18 08:02:40;;;;;;;;;;;5.30;99.90;;;;;;4951520;28;20382;-76
2022/02/18 08:05:06;;;;;;;;;;;5.30;99.90;;;;;;4966683;28;24194;-76
2022/02/18 08:07:31;;;;;;;;;;;5.40;99.90;;;;;;4969465;28;19960;-76
2022/02/18 08:09:57;;;;;;;;;;;5.40;99.90;;;;;;4969435;28;20383;-76
2022/02/18 08:12:22;;;;;;;;;;;5.40;99.90;;;;;;4964983;28;19917;-75
2022/02/18 08:14:48;;;;;;;;;;;5.40;99.90;;;;;;4970417;28;19914;-75
2022/02/18 08:17:14;;;;;;;;;;;5.50;99.90;;;;;;4968509;28;19910;-75
2022/02/18 08:19:39;;;;;;;;;;;5.50;99.90;;;;;;4969021;28;19957;-74
2022/02/18 08:22:05;;;;;;;;;;;5.50;99.90;;;;;;4968418;28;19924;-74
2022/02/18 08:24:31;;;;;;;;;;;5.50;99.90;;;;;;4957478;28;20001;-74
2022/02/18 08:27:01;;;;;;;;;;;5.50;99.90;;;;;;4973317;28;19906;-75
2022/02/18 08:29:27;;;;;;;;;;;5.50;99.90;;;;;;4974711;28;20384;-75
2022/02/18 08:31:56;;;;;;;;;;;5.50;99.90;;;;;;4968217;28;19916;-74
2022/02/18 08:34:24;;;;;;;;;;;5.60;99.90;;;;;;4973813;28;19965;-75
2022/02/18 08:36:50;;;;;;;;;;;5.70;99.90;;;;;;4969160;28;19914;-75
2022/02/18 08:39:16;;;;;;;;;;;5.60;99.90;;;;;;4974224;28;19914;-75
2022/02/18 08:41:42;;;;;;;;;;;5.70;99.90;;;;;;4969525;28;19922;-75
2022/02/18 08:44:07;;;;;;;;;;;5.70;99.90;;;;;;4970891;28;20642;-73
2022/02/18 08:46:34;;;;;;;;;;;5.70;99.90;;;;;;4971029;28;19910;-74
2022/02/18 08:49:00;;;;;;;;;;;5.70;99.90;;;;;;4955759;28;19906;-74
2022/02/18 08:51:26;;;;;;;;;;;5.70;99.90;;;;;;4972300;28;19914;-73
2022/02/18 08:53:51;;;;;;;;;;;5.80;99.90;;;;;;4976289;28;19974;-74
2022/02/18 08:56:17;;;;;;;;;;;5.80;99.90;;;;;;4954182;28;20333;-75
2022/02/18 08:58:43;;;;;;;;;;;5.80;99.90;;;;;;4972425;28;20000;-75
2022/02/18 09:01:08;;;;;;;;;;;5.80;99.90;;;;;;4973414;28;19918;-75
2022/02/18 09:03:34;;;;;;;;;;;5.80;99.90;;;;;;4970935;28;19908;-75
2022/02/18 09:06:00;;;;;;;;;;;5.90;99.90;;;;;;4970751;28;19917;-75
2022/02/18 09:08:26;;;;;;;;;;;5.90;99.90;;;;;;4973013;28;20356;-75
2022/02/18 09:10:52;;;;;;;;;;;5.90;99.90;;;;;;4972094;28;20248;-75
2022/02/18 09:13:20;;;;;;;;;;;6.00;99.90;;;;;;4975337;28;19905;-75
2022/02/18 09:15:46;;;;;;;;;;;6.10;99.90;;;;;;4972005;28;19914;-75
2022/02/18 09:18:12;;;;;;;;;;;6.00;99.90;;;;;;4970592;28;19917;-74
2022/02/18 09:20:37;;;;;;;;;;;6.00;99.90;;;;;;4972595;28;19922;-75
2022/02/18 09:23:03;;;;;;;;;;;6.00;99.90;;;;;;4968411;28;19918;-75
2022/02/18 09:25:28;;;;;;;;;;;6.00;99.90;;;;;;4975047;28;19937;-75
2022/02/18 09:27:55;;;;;;;;;;;6.10;99.90;;;;;;4970898;28;19910;-75
2022/02/18 09:30:20;;;;;;;;;;;6.00;99.90;;;;;;4973375;28;19917;-75
2022/02/18 09:32:46;;;;;;;;;;;6.10;99.90;;;;;;4972891;28;19994;-75
2022/02/18 09:35:12;;;;;;;;;;;6.10;99.90;;;;;;4971617;28;19956;-75
2022/02/18 09:37:37;;;;;;;;;;;6.10;99.90;;;;;;5005580;28;19901;-74
2022/02/18 09:40:05;;;;;;;;;;;6.10;99.90;;;;;;4958875;28;19913;-75
2022/02/18 09:42:31;;;;;;;;;;;6.10;99.90;;;;;;4973529;28;20403;-75
2022/02/18 09:44:57;;;;;;;;;;;6.10;99.90;;;;;;4976115;28;19953;-75
2022/02/18 09:47:22;;;;;;;;;;;6.10;99.90;;;;;;4975341;28;19917;-75
2022/02/18 09:49:48;;;;;;;;;;;6.10;99.90;;;;;;4972907;28;19917;-75
2022/02/18 09:52:14;;;;;;;;;;;6.10;99.90;;;;;;4964738;28;19910;-75
2022/02/18 09:54:40;;;;;;;;;;;6.10;99.90;;;;;;4954282;28;19917;-75
2022/02/18 09:57:06;;;;;;;;;;;6.10;99.90;;;;;;4985315;28;19910;-75
2022/02/18 09:59:32;;;;;;;;;;;6.10;99.90;;;;;;4970680;28;19924;-74
2022/02/18 10:01:58;;;;;;;;;;;6.10;99.90;;;;;;4963265;28;19916;-74
2022/02/18 10:04:24;;;;;;;;;;;6.10;99.90;;;;;;4971570;28;19993;-74
2022/02/18 10:06:49;;;;;;;;;;;6.00;99.90;;;;;;4970320;28;19918;-74
2022/02/18 10:09:15;;;;;;;;;;;6.00;99.90;;;;;;4969566;28;20619;-74
2022/02/18 10:11:58;;;;;;;;;;;6.00;99.90;;;;;;4966600;28;19910;-74
2022/02/18 10:14:23;;;;;;;;;;;6.00;99.90;;;;;;4969034;28;19915;-74
2022/02/18 10:16:49;;;;;;;;;;;6.00;99.90;;;;;;4970056;28;19972;-74
2022/02/18 10:19:15;;;;;;;;;;;6.00;99.90;;;;;;4972269;28;20272;-74
2022/02/18 10:21:42;;;;;;;;;;;6.00;99.90;;;;;;4973762;28;20468;-75
2022/02/18 10:24:12;;;;;;;;;;;6.00;99.90;;;;;;4969321;28;19910;-74
2022/02/18 10:26:40;;;;;;;;;;;6.00;99.90;;;;;;4966268;28;20504;-74
2022/02/18 10:29:09;;;;;;;;;;;6.00;99.90;;;;;;4968223;28;20403;-74
2022/02/18 10:31:35;;;;;;;;;;;6.00;99.90;;;;;;4969208;28;19917;-74
2022/02/18 10:34:02;;;;;;;;;;;6.00;99.90;;;;;;4972582;28;19906;-74
2022/02/18 10:36:41;;;;;;;;;;;6.00;99.90;;;;;;4970221;28;20352;-75
2022/02/18 10:39:28;;;;;;;;;;;6.10;99.90;;;;;;4965889;28;19914;-74
2022/02/18 10:41:59;;;;;;;;;;;6.10;99.90;;;;;;4967204;28;19910;-75
2022/02/18 10:44:26;;;;;;;;;;;6.10;99.90;;;;;;4952525;28;19917;-74
2022/02/18 10:46:55;;;;;;;;;;;6.10;99.90;;;;;;4971296;28;19925;-74
2022/02/18 10:49:24;;;;;;;;;;;6.10;99.90;;;;;;4973616;28;20547;-74
2022/02/18 10:51:54;;;;;;;;;;;6.20;99.90;;;;;;4968269;28;19941;-74
2022/02/18 10:54:33;;;;;;;;;;;6.20;99.90;;;;;;4971465;28;19956;-74
2022/02/18 10:57:17;;;;;;;;;;;6.20;99.90;;;;;;4966779;28;19910;-75
2022/02/18 10:59:43;;;;;;;;;;;6.20;99.90;;;;;;4961800;28;19982;-74
2022/02/18 11:02:09;;;;;;;;;;;6.20;99.90;;;;;;4962690;28;20384;-74
2022/02/18 11:04:34;;;;;;;;;;;6.20;99.90;;;;;;4961312;28;19997;-75
2022/02/18 11:07:13;;;;;;;;;;;6.20;99.90;;;;;;4962149;28;20490;-74
2022/02/18 11:09:40;;;;;;;;;;;6.20;99.90;;;;;;4960839;28;19960;-74
2022/02/18 11:12:09;;;;;;;;;;;6.20;99.90;;;;;;4960251;28;19918;-75
2022/02/18 11:14:36;;;;;;;;;;;6.20;99.90;;;;;;4958192;28;19918;-74
2022/02/18 11:17:01;;;;;;;;;;;6.20;99.90;;;;;;4962893;28;19917;-75
2022/02/18 11:19:27;;;;;;;;;;;6.20;99.90;;;;;;4960129;28;19918;-74
2022/02/18 11:21:53;;;;;;;;;;;6.20;99.90;;;;;;4963472;28;19918;-74
2022/02/18 11:24:21;;;;;;;;;;;6.10;99.90;;;;;;4968423;28;20276;-75
2022/02/18 11:26:48;;;;;;;;;;;6.10;99.90;;;;;;4986954;28;19914;-73
2022/02/18 11:29:14;;;;;;;;;;;6.10;99.90;;;;;;4967781;28;19916;-74
2022/02/18 11:31:42;;;;;;;;;;;6.20;99.90;;;;;;4960876;28;20005;-74
2022/02/18 11:34:14;;;;;;;;;;;6.10;99.90;;;;;;4962709;28;19924;-74
2022/02/18 11:36:49;;;;;;;;;;;6.10;99.90;;;;;;4960767;28;20233;-75
2022/02/18 11:39:26;;;;;;;;;;;6.10;99.90;;;;;;4962916;28;19915;-74
2022/02/18 11:41:58;;;;;;;;;;;6.10;99.90;;;;;;4960306;28;19915;-76
2022/02/18 11:44:28;;;;;;;;;;;6.10;99.90;;;;;;4962930;28;19917;-76
2022/02/18 11:47:14;;;;;;;;;;;6.10;99.90;;;;;;4963110;28;19910;-74
2022/02/18 11:49:40;;;;;;;;;;;6.00;99.90;;;;;;4960674;28;19969;-75
2022/02/18 11:52:10;;;;;;;;;;;6.00;99.90;;;;;;4962425;28;19961;-73
2022/02/18 11:54:36;;;;;;;;;;;6.00;99.90;;;;;;4962834;28;19926;-74
2022/02/18 11:57:03;;;;;;;;;;;6.00;99.90;;;;;;4979588;28;19921;-73
2022/02/18 12:00:01;;;;;;;;;;;6.00;99.90;;;;;;4964849;28;19962;-75
2022/02/18 12:02:33;;;;;;;;;;;6.00;99.90;;;;;;4940178;28;19910;-75
2022/02/18 12:05:09;;;;;;;;;;;6.00;99.90;;;;;;4966647;28;19910;-75
2022/02/18 12:07:36;;;;;;;;;;;6.10;99.90;;;;;;4964428;28;19918;-74
2022/02/18 12:10:01;;;;;;;;;;;6.10;99.90;;;;;;4965482;28;19953;-74
2022/02/18 12:12:32;;;;;;;;;;;6.10;99.90;;;;;;4965365;28;19958;-74
2022/02/18 12:14:59;;;;;;;;;;;6.10;99.90;;;;;;4964292;28;19918;-72
2022/02/18 12:17:25;;;;;;;;;;;6.10;99.90;;;;;;4965955;28;20407;-74
2022/02/18 12:19:51;;;;;;;;;;;6.10;99.90;;;;;;4966796;28;19921;-75
2022/02/18 12:22:34;;;;;;;;;;;6.10;99.90;;;;;;4965225;28;20292;-74
2022/02/18 12:25:01;;;;;;;;;;;6.10;99.90;;;;;;4963700;28;19914;-72
2022/02/18 12:27:28;;;;;;;;;;;6.30;99.90;;;;;;4965486;28;19917;-72
2022/02/18 12:29:54;;;;;;;;;;;6.30;99.90;;;;;;4962395;28;19972;-73
2022/02/18 12:32:20;;;;;;;;;;;6.30;99.90;;;;;;4959310;28;19914;-72
2022/02/18 12:34:58;;;;;;;;;;;6.30;99.90;;;;;;4963131;28;20225;-74
2022/02/18 12:37:23;;;;;;;;;;;6.30;99.90;;;;;;4971190;28;19910;-73
2022/02/18 12:39:54;;;;;;;;;;;6.30;99.90;;;;;;4972582;28;19925;-73
2022/02/18 12:42:24;;;;;;;;;;;6.30;99.90;;;;;;4964039;28;19941;-74
2022/02/18 12:44:56;;;;;;;;;;;6.30;99.90;;;;;;4969530;28;19921;-74
2022/02/18 12:47:26;;;;;;;;;;;6.40;99.90;;;;;;4967379;28;19997;-73
2022/02/18 12:49:53;;;;;;;;;;;6.40;99.90;;;;;;4967052;28;19909;-73
2022/02/18 12:52:19;;;;;;;;;;;6.40;99.90;;;;;;4964753;28;19925;-73
2022/02/18 12:54:49;;;;;;;;;;;6.50;99.90;;;;;;4969264;28;19914;-73
2022/02/18 12:57:21;;;;;;;;;;;6.50;99.90;;;;;;4970450;28;19917;-73
2022/02/18 12:59:48;;;;;;;;;;;6.60;99.90;;;;;;4967787;28;19918;-73
2022/02/18 13:02:32;;;;;;;;;;;6.60;99.90;;;;;;4968206;28;19914;-73
2022/02/18 13:05:10;;;;;;;;;;;6.70;99.90;;;;;;4967551;28;20403;-74
2022/02/18 13:07:37;;;;;;;;;;;6.80;99.90;;;;;;4981879;28;19922;-73
2022/02/18 13:10:05;;;;;;;;;;;6.90;99.90;;;;;;4973790;28;19915;-74
2022/02/18 13:12:31;;;;;;;;;;;6.80;99.90;;;;;;4950354;28;19910;-74
2022/02/18 13:15:06;;;;;;;;;;;6.80;99.90;;;;;;4972748;28;19988;-73
2022/02/18 13:17:32;;;;;;;;;;;6.90;99.90;;;;;;4972371;28;19916;-74
2022/02/18 13:19:58;;;;;;;;;;;6.90;99.90;;;;;;4968307;28;20300;-75
2022/02/18 13:22:31;;;;;;;;;;;7.10;99.90;;;;;;4998868;23;19992;-71
2022/02/18 13:24:57;;;;;;;;;;;7.20;99.90;;;;;;4983864;28;19925;-72
2022/02/18 13:27:22;;;;;;;;;;;7.20;99.90;;;;;;4951010;28;19913;-73
2022/02/18 13:29:53;;;;;;;;;;;7.20;99.90;;;;;;4983678;28;19984;-74
2022/02/18 13:32:19;;;;;;;;;;;7.40;99.90;;;;;;4991151;28;19991;-72
2022/02/18 13:34:49;;;;;;;;;;;7.40;99.90;;;;;;4997277;28;19920;-72
2022/02/18 13:37:18;;;;;;;;;;;7.50;99.90;;;;;;4978547;28;20383;-74
2022/02/18 13:39:45;;;;;;;;;;;7.70;99.90;;;;;;4995864;28;19923;-71
2022/02/18 13:42:11;;;;;;;;;;;7.80;99.90;;;;;;4993981;28;19933;-72
2022/02/18 13:44:36;;;;;;;;;;;8.00;99.90;;;;;;4996813;28;19925;-74
2022/02/18 13:47:06;;;;;;;;;;;8.10;99.90;;;;;;4975849;28;19909;-72
2022/02/18 13:49:32;;;;;;;;;;;8.20;99.90;;;;;;4998263;28;19952;-71
2022/02/18 13:51:57;;;;;;;;;;;8.30;99.90;;;;;;4978858;28;19956;-72
2022/02/18 13:54:27;;;;;;;;;;;8.30;99.90;;;;;;4998193;28;19917;-75
2022/02/18 13:57:03;;;;;;;;;;;8.50;99.90;;;;;;4965502;28;20557;-73
2022/02/18 13:59:29;;;;;;;;;;;8.50;99.90;;;;;;4996582;28;19925;-73
2022/02/18 14:01:56;;;;;;;;;;;8.50;99.90;;;;;;4997619;28;19914;-73
2022/02/18 14:04:22;;;;;;;;;;;8.50;99.90;;;;;;4997327;28;19916;-74
2022/02/18 14:06:58;;;;;;;;;;;8.60;99.90;;;;;;4978575;28;20004;-75
2022/02/18 14:09:44;;;;;;;;;;;8.60;99.90;;;;;;4994929;28;20285;-74
2022/02/18 14:12:11;;;;;;;;;;;8.70;99.90;;;;;;4969896;28;19944;-73
2022/02/18 14:14:36;;;;;;;;;;;8.70;99.90;;;;;;4979573;28;19996;-73
2022/02/18 14:17:03;;;;;;;;;;;8.70;99.90;;;;;;4995897;28;20376;-76
2022/02/18 14:19:48;;;;;;;;;;;8.60;99.90;;;;;;4999922;28;20016;-73
2022/02/18 14:22:29;;;;;;;;;;;8.80;99.90;;;;;;4978113;28;19921;-74
2022/02/18 14:24:56;;;;;;;;;;;8.80;99.90;;;;;;4999696;28;19916;-73
2022/02/18 14:27:23;;;;;;;;;;;8.80;99.90;;;;;;4996834;28;20429;-73
2022/02/18 14:29:52;;;;;;;;;;;8.70;99.90;;;;;;5000749;28;19910;-74